»·PEaware :: BAW717 EGLL-LSZH

BAW717 :: EGLL-LSZH

FLIGHT INFORMATION

Flight Status: Arrived
Operator:
British Airways
More flights by this operator :: More flights under this callsign
Pilot: Ty S. (2873)
Aircraft: EMBRAER EMB-170/175
(E170)
More flights by this aircraft type
Origin: EGLL Heathrow
United Kingdom
Destination: LSZH Zurich
Switzerland
More flights between these airports :: More routes between these airports
Route: DET2F DET UL6 DVR UL9 KONAN UL607 KOK UM150 DIK UN852 GTQ UT27 BLM BLM2G
File this flight plan on PilotEdge
Remarks:
Altitude:
(Current/Filed)
33,000ft
Speed:
(Current/Filed)
450kts
Departed: 21-Oct-16 03:54 PM
Arrived: 21-Oct-16 05:11 PM
Distance/Time
Traveled:
426nm/1:17
Distance/Time
To Go:
Arrived

Flight Plot

Page will automatically refresh every two minutes.

Flight plan parsing failed; only flown route is shown


Map Options




Map Legend


Flown Route
Filed Route
Departure Airport
Arrival Airport
Navaid (VOR, NDB)
Fix

Horizontal Profiles

Position Reports

Time Latitude Longitude Heading Altitude Ground
Speed
21-Oct-16 15:15 51.469361 -0.459695 54 89ft 0kts
21-Oct-16 15:16 51.469361 -0.459695 54 89ft 0kts
21-Oct-16 15:17 51.469361 -0.459695 54 89ft 0kts
21-Oct-16 15:18 51.469361 -0.459695 54 89ft 0kts
21-Oct-16 15:19 51.469361 -0.459695 54 89ft 0kts
21-Oct-16 15:20 51.469361 -0.459695 54 89ft 0kts
21-Oct-16 15:21 51.469361 -0.459695 54 89ft 0kts
21-Oct-16 15:22 51.469361 -0.459695 54 89ft 0kts
21-Oct-16 15:23 51.469361 -0.459695 54 89ft 0kts
21-Oct-16 15:24 51.469361 -0.459695 54 89ft 0kts
21-Oct-16 15:25 51.469361 -0.459695 54 89ft 0kts
21-Oct-16 15:26 51.469361 -0.459695 54 89ft 0kts
21-Oct-16 15:27 51.469361 -0.459695 54 89ft 0kts
21-Oct-16 15:28 51.469361 -0.459695 54 89ft 0kts
21-Oct-16 15:29 51.469361 -0.459695 54 89ft 0kts
21-Oct-16 15:30 51.469361 -0.459695 54 89ft 0kts
21-Oct-16 15:31 51.469361 -0.459695 54 89ft 0kts
21-Oct-16 15:32 51.469361 -0.459695 54 89ft 0kts
21-Oct-16 15:33 51.469361 -0.459695 54 89ft 0kts
21-Oct-16 15:34 51.469361 -0.459695 54 89ft 0kts
21-Oct-16 15:35 51.469361 -0.459695 54 89ft 0kts
21-Oct-16 15:36 51.469361 -0.459695 54 89ft 0kts
21-Oct-16 15:37 51.469361 -0.459695 54 89ft 0kts
21-Oct-16 15:38 51.469361 -0.459695 54 89ft 0kts
21-Oct-16 15:39 51.469281 -0.459868 52 89ft 2kts
21-Oct-16 15:40 51.468916 -0.460615 51 89ft 0kts
21-Oct-16 15:41 51.468916 -0.460615 51 89ft 0kts
21-Oct-16 15:42 51.468916 -0.460615 51 89ft 0kts
21-Oct-16 15:43 51.468441 -0.460172 133 89ft 11kts
21-Oct-16 15:44 51.466625 -0.456672 91 89ft 24kts
21-Oct-16 15:45 51.466650 -0.445361 88 89ft 16kts
21-Oct-16 15:46 51.466670 -0.440202 88 89ft 13kts
21-Oct-16 15:47 51.466283 -0.436031 177 89ft 3kts
21-Oct-16 15:48 51.464942 -0.436811 269 89ft 11kts
21-Oct-16 15:49 51.464280 -0.491171 268 919ft 176kts
21-Oct-16 15:50 51.449723 -0.564492 217 2977ft 187kts
21-Oct-16 15:51 51.400775 -0.593337 202 5187ft 194kts
21-Oct-16 15:52 51.346904 -0.635209 210 6619ft 252kts
21-Oct-16 15:53 51.278430 -0.674726 159 7742ft 283kts
21-Oct-16 15:54 51.255273 -0.572560 65 8905ft 278kts
21-Oct-16 15:55 51.282809 -0.457456 74 9903ft 283kts
21-Oct-16 15:56 51.295023 -0.332651 83 11371ft 288kts
21-Oct-16 15:57 51.299539 -0.200799 86 12750ft 330kts
21-Oct-16 15:58 51.301316 -0.054497 86 14943ft 339kts
21-Oct-16 15:59 51.302063 0.095890 86 16846ft 349kts
21-Oct-16 16:00 51.303170 0.251350 86 18559ft 359kts
21-Oct-16 16:01 51.303741 0.412397 86 20134ft 368kts
21-Oct-16 16:02 51.303681 0.576577 88 21543ft 377kts
21-Oct-16 16:03 51.287858 0.745795 97 22741ft 391kts
21-Oct-16 16:04 51.265703 0.917079 97 23825ft 400kts
21-Oct-16 16:05 51.243716 1.093648 96 24705ft 412kts
21-Oct-16 16:06 51.222334 1.274159 97 25556ft 421kts
21-Oct-16 16:07 51.199748 1.458657 97 26420ft 427kts
21-Oct-16 16:08 51.176075 1.645005 97 27251ft 432kts
21-Oct-16 16:09 51.151891 1.833083 97 27968ft 437kts
21-Oct-16 16:10 51.128550 2.023322 94 28621ft 441kts
21-Oct-16 16:11 51.117521 2.216281 89 29208ft 443kts
21-Oct-16 16:12 51.108592 2.413146 91 29769ft 448kts
21-Oct-16 16:13 51.096838 2.611350 94 30285ft 454kts
21-Oct-16 16:14 51.051621 2.798575 115 30996ft 460kts
21-Oct-16 16:15 50.987736 2.975573 116 31310ft 467kts
21-Oct-16 16:16 50.924988 3.156253 115 31619ft 471kts
21-Oct-16 16:17 50.864049 3.340378 115 31938ft 475kts
21-Oct-16 16:18 50.801866 3.523508 116 32395ft 475kts
21-Oct-16 16:19 50.738773 3.705991 116 32822ft 475kts
21-Oct-16 16:20 50.675012 3.889154 116 33007ft 481kts
21-Oct-16 16:21 50.611021 4.071815 116 33006ft 474kts
21-Oct-16 16:22 50.548242 4.253080 116 33031ft 473kts
21-Oct-16 16:23 50.484900 4.434094 117 33051ft 473kts
21-Oct-16 16:24 50.420581 4.612803 117 33043ft 473kts
21-Oct-16 16:25 50.355125 4.790942 117 33045ft 473kts
21-Oct-16 16:26 50.290181 4.969858 117 33047ft 476kts
21-Oct-16 16:27 50.225320 5.148710 117 33034ft 477kts
21-Oct-16 16:28 50.160576 5.329037 117 33017ft 477kts
21-Oct-16 16:29 50.097054 5.500681 118 33019ft 477kts
21-Oct-16 16:30 50.030358 5.679472 118 33035ft 477kts
21-Oct-16 16:31 49.963780 5.857053 118 33049ft 477kts
21-Oct-16 16:32 49.896808 6.034775 117 33050ft 477kts
21-Oct-16 16:33 49.806380 6.179582 153 33057ft 478kts
21-Oct-16 16:34 49.683526 6.253608 164 33048ft 474kts
21-Oct-16 16:35 49.561504 6.331206 157 33050ft 477kts
21-Oct-16 16:36 49.440647 6.411122 160 33048ft 476kts
21-Oct-16 16:37 49.319522 6.490984 158 33061ft 477kts
21-Oct-16 16:38 49.198985 6.573019 158 33063ft 476kts
21-Oct-16 16:39 49.078099 6.654486 159 33056ft 478kts
21-Oct-16 16:40 48.955438 6.735323 162 33050ft 481kts
21-Oct-16 16:41 48.851925 6.796482 164 33062ft 481kts
21-Oct-16 16:42 48.706790 6.880559 163 33063ft 481kts
21-Oct-16 16:43 48.604265 6.940532 163 33061ft 481kts
21-Oct-16 16:44 48.479746 7.013271 163 31165ft 480kts
21-Oct-16 16:45 48.357075 7.084112 163 29230ft 477kts
21-Oct-16 16:46 48.237355 7.154699 162 27052ft 452kts
21-Oct-16 16:47 48.123709 7.221684 163 24627ft 431kts
21-Oct-16 16:48 48.014612 7.283888 163 22208ft 411kts
21-Oct-16 16:49 47.910189 7.342996 163 19793ft 393kts
21-Oct-16 16:50 47.810677 7.399187 162 17389ft 375kts
21-Oct-16 16:51 47.715851 7.453023 162 14994ft 359kts
21-Oct-16 16:52 47.632935 7.524874 126 12626ft 349kts
21-Oct-16 16:53 47.595573 7.652061 106 10697ft 322kts
21-Oct-16 16:54 47.569514 7.771387 108 9366ft 295kts
21-Oct-16 16:55 47.542792 7.883724 108 8078ft 286kts
21-Oct-16 16:56 47.516658 7.993161 105 7034ft 280kts
21-Oct-16 16:57 47.534287 8.089803 53 7009ft 229kts
21-Oct-16 16:58 47.569399 8.167616 56 7011ft 230kts
21-Oct-16 16:59 47.602147 8.246627 56 6194ft 218kts
21-Oct-16 17:00 47.617567 8.325450 110 4879ft 206kts
21-Oct-16 17:01 47.586630 8.392314 135 4045ft 193kts
21-Oct-16 17:02 47.553928 8.437713 135 3311ft 138kts
21-Oct-16 17:03 47.526188 8.475779 136 2633ft 135kts
21-Oct-16 17:04 47.498689 8.513428 137 1915ft 136kts
21-Oct-16 17:05 47.473455 8.547855 137 1422ft 59kts
21-Oct-16 17:06 47.465700 8.556998 179 1422ft 15kts
21-Oct-16 17:07 47.462008 8.557851 182 1422ft 10kts
21-Oct-16 17:08 47.461416 8.557764 187 1422ft 0kts
21-Oct-16 17:09 47.461325 8.557746 187 1422ft 0kts
21-Oct-16 17:10 47.461325 8.557746 187 1422ft 0kts
21-Oct-16 17:11 47.461325 8.557746 187 1422ft 0kts
21-Oct-16 17:12 47.461325 8.557746 187 1422ft 0kts
21-Oct-16 17:13 47.461325 8.557746 187 1422ft 0kts
21-Oct-16 17:14 47.461325 8.557746 187 1422ft 0kts
21-Oct-16 17:15 47.461325 8.557746 187 1422ft 0kts
21-Oct-16 17:16 47.461325 8.557746 187 1422ft 0kts
21-Oct-16 17:17 47.461325 8.557746 187 1422ft 0kts
21-Oct-16 17:18 47.461325 8.557746 187 1422ft 0kts

Navigation Log

Ident Type
Flight plan parsing failed, navigation log unavailable